sensor_id;sensor_type;location;lat;lon;timestamp;pressure;altitude;pressure_sealevel;temperature;humidity
26823;BME280;14852;51.910;8.878;2023-04-08T00:00:44;100329.47;;;6.62;45.65
26823;BME280;14852;51.910;8.878;2023-04-08T00:03:10;100323.44;;;6.61;45.55
26823;BME280;14852;51.910;8.878;2023-04-08T00:05:36;100326.09;;;6.58;45.61
26823;BME280;14852;51.910;8.878;2023-04-08T00:08:02;100326.09;;;6.58;45.90
26823;BME280;14852;51.910;8.878;2023-04-08T00:10:27;100329.50;;;6.60;45.83
26823;BME280;14852;51.910;8.878;2023-04-08T00:12:53;100331.19;;;6.61;45.76
26823;BME280;14852;51.910;8.878;2023-04-08T00:15:20;100323.41;;;6.63;45.92
26823;BME280;14852;51.910;8.878;2023-04-08T00:17:45;100330.16;;;6.68;45.91
26823;BME280;14852;51.910;8.878;2023-04-08T00:20:12;100326.63;;;6.71;45.98
26823;BME280;14852;51.910;8.878;2023-04-08T00:22:37;100331.72;;;6.74;45.74
26823;BME280;14852;51.910;8.878;2023-04-08T00:25:04;100336.00;;;6.75;45.94
26823;BME280;14852;51.910;8.878;2023-04-08T00:27:34;100338.56;;;6.75;46.07
26823;BME280;14852;51.910;8.878;2023-04-08T00:30:00;100335.13;;;6.74;46.07
26823;BME280;14852;51.910;8.878;2023-04-08T00:32:26;100340.31;;;6.74;46.23
26823;BME280;14852;51.910;8.878;2023-04-08T00:34:53;100331.63;;;6.77;46.25
26823;BME280;14852;51.910;8.878;2023-04-08T00:37:18;100335.81;;;6.81;46.30
26823;BME280;14852;51.910;8.878;2023-04-08T00:39:45;100337.31;;;6.89;46.02
26823;BME280;14852;51.910;8.878;2023-04-08T00:42:11;100335.25;;;7.01;45.95
26823;BME280;14852;51.910;8.878;2023-04-08T00:44:37;100334.97;;;7.11;45.94
26823;BME280;14852;51.910;8.878;2023-04-08T00:47:03;100339.84;;;7.20;45.88
26823;BME280;14852;51.910;8.878;2023-04-08T00:49:32;100342.16;;;7.30;45.89
26823;BME280;14852;51.910;8.878;2023-04-08T00:51:59;100332.50;;;7.36;45.66
26823;BME280;14852;51.910;8.878;2023-04-08T00:54:25;100335.88;;;7.38;45.74
26823;BME280;14852;51.910;8.878;2023-04-08T00:56:51;100341.94;;;7.37;46.12
26823;BME280;14852;51.910;8.878;2023-04-08T00:59:17;100335.03;;;7.38;46.15
26823;BME280;14852;51.910;8.878;2023-04-08T01:01:56;100334.03;;;7.42;46.14
26823;BME280;14852;51.910;8.878;2023-04-08T01:04:59;100337.44;;;7.44;46.51
26823;BME280;14852;51.910;8.878;2023-04-08T01:07:34;100335.81;;;7.40;46.38
26823;BME280;14852;51.910;8.878;2023-04-08T01:13:06;100338.91;;;7.51;46.18
26823;BME280;14852;51.910;8.878;2023-04-08T01:15:36;100333.63;;;7.55;46.50
26823;BME280;14852;51.910;8.878;2023-04-08T01:18:07;100335.28;;;7.58;46.39
26823;BME280;14852;51.910;8.878;2023-04-08T01:20:33;100325.63;;;7.63;46.54
26823;BME280;14852;51.910;8.878;2023-04-08T01:25:30;100327.78;;;7.77;46.61
26823;BME280;14852;51.910;8.878;2023-04-08T01:28:12;100326.00;;;7.79;46.67
26823;BME280;14852;51.910;8.878;2023-04-08T01:30:41;100331.41;;;7.71;46.64
26823;BME280;14852;51.910;8.878;2023-04-08T01:33:11;100331.56;;;7.67;46.67
26823;BME280;14852;51.910;8.878;2023-04-08T01:35:38;100332.53;;;7.62;46.90
26823;BME280;14852;51.910;8.878;2023-04-08T01:38:07;100331.69;;;7.62;47.29
26823;BME280;14852;51.910;8.878;2023-04-08T01:40:34;100327.34;;;7.62;47.14
26823;BME280;14852;51.910;8.878;2023-04-08T01:43:06;100330.69;;;7.66;47.21
26823;BME280;14852;51.910;8.878;2023-04-08T01:45:32;100336.69;;;7.68;47.25
26823;BME280;14852;51.910;8.878;2023-04-08T01:47:59;100328.84;;;7.71;47.10
26823;BME280;14852;51.910;8.878;2023-04-08T01:50:26;100328.50;;;7.82;47.04
26823;BME280;14852;51.910;8.878;2023-04-08T01:52:54;100319.56;;;7.90;47.17
26823;BME280;14852;51.910;8.878;2023-04-08T01:55:21;100319.28;;;7.99;47.02
26823;BME280;14852;51.910;8.878;2023-04-08T01:57:50;100329.38;;;8.07;46.88
26823;BME280;14852;51.910;8.878;2023-04-08T02:00:25;100323.16;;;8.13;46.91
26823;BME280;14852;51.910;8.878;2023-04-08T02:02:52;100323.09;;;8.14;46.89
26823;BME280;14852;51.910;8.878;2023-04-08T02:05:19;100323.78;;;8.19;46.77
26823;BME280;14852;51.910;8.878;2023-04-08T02:07:47;100322.69;;;8.26;46.97
26823;BME280;14852;51.910;8.878;2023-04-08T02:10:13;100323.41;;;8.31;46.78
26823;BME280;14852;51.910;8.878;2023-04-08T02:12:39;100332.75;;;8.35;46.92
26823;BME280;14852;51.910;8.878;2023-04-08T02:15:09;100328.53;;;8.33;47.09
26823;BME280;14852;51.910;8.878;2023-04-08T02:17:51;100331.88;;;8.37;47.22
26823;BME280;14852;51.910;8.878;2023-04-08T02:20:37;100335.94;;;8.44;47.16
26823;BME280;14852;51.910;8.878;2023-04-08T02:23:20;100334.31;;;8.41;47.18
26823;BME280;14852;51.910;8.878;2023-04-08T02:25:47;100337.13;;;8.33;47.52
26823;BME280;14852;51.910;8.878;2023-04-08T02:28:14;100341.41;;;8.34;47.72
26823;BME280;14852;51.910;8.878;2023-04-08T02:30:47;100340.44;;;8.39;47.63
26823;BME280;14852;51.910;8.878;2023-04-08T02:33:13;100346.41;;;8.41;47.56
26823;BME280;14852;51.910;8.878;2023-04-08T02:35:41;100345.44;;;8.43;47.63
26823;BME280;14852;51.910;8.878;2023-04-08T02:38:08;100343.69;;;8.44;47.78
26823;BME280;14852;51.910;8.878;2023-04-08T02:40:35;100347.19;;;8.43;47.72
26823;BME280;14852;51.910;8.878;2023-04-08T02:43:02;100351.47;;;8.44;47.85
26823;BME280;14852;51.910;8.878;2023-04-08T02:45:37;100341.72;;;8.52;47.80
26823;BME280;14852;51.910;8.878;2023-04-08T02:48:05;100352.75;;;8.57;47.83
26823;BME280;14852;51.910;8.878;2023-04-08T02:50:32;100356.03;;;8.62;47.80
26823;BME280;14852;51.910;8.878;2023-04-08T02:52:57;100348.03;;;8.68;47.56
26823;BME280;14852;51.910;8.878;2023-04-08T02:55:23;100355.59;;;8.74;47.85
26823;BME280;14852;51.910;8.878;2023-04-08T02:57:49;100364.03;;;8.79;47.75
26823;BME280;14852;51.910;8.878;2023-04-08T03:00:15;100359.69;;;8.80;47.97
26823;BME280;14852;51.910;8.878;2023-04-08T03:02:41;100356.16;;;8.82;47.80
26823;BME280;14852;51.910;8.878;2023-04-08T03:05:07;100353.47;;;8.85;48.05
26823;BME280;14852;51.910;8.878;2023-04-08T03:07:34;100352.53;;;8.88;48.23
26823;BME280;14852;51.910;8.878;2023-04-08T03:10:01;100359.25;;;8.92;48.09
26823;BME280;14852;51.910;8.878;2023-04-08T03:12:27;100349.66;;;8.95;48.25
26823;BME280;14852;51.910;8.878;2023-04-08T03:14:53;100355.63;;;8.97;48.22
26823;BME280;14852;51.910;8.878;2023-04-08T03:17:20;100352.91;;;9.00;48.15
26823;BME280;14852;51.910;8.878;2023-04-08T03:19:46;100357.13;;;9.03;48.17
26823;BME280;14852;51.910;8.878;2023-04-08T03:22:12;100358.78;;;9.05;48.37
26823;BME280;14852;51.910;8.878;2023-04-08T03:24:38;100363.06;;;9.06;48.57
26823;BME280;14852;51.910;8.878;2023-04-08T03:27:05;100375.28;;;9.03;48.32
26823;BME280;14852;51.910;8.878;2023-04-08T03:29:30;100372.78;;;9.00;48.46
26823;BME280;14852;51.910;8.878;2023-04-08T03:31:56;100371.03;;;9.00;48.60
26823;BME280;14852;51.910;8.878;2023-04-08T03:34:22;100375.19;;;9.06;48.71
26823;BME280;14852;51.910;8.878;2023-04-08T03:36:48;100367.34;;;9.07;48.84
26823;BME280;14852;51.910;8.878;2023-04-08T03:39:13;100368.19;;;9.08;48.73
26823;BME280;14852;51.910;8.878;2023-04-08T03:41:39;100365.50;;;9.11;48.99
26823;BME280;14852;51.910;8.878;2023-04-08T03:44:05;100369.69;;;9.14;49.03
26823;BME280;14852;51.910;8.878;2023-04-08T03:46:31;100373.13;;;9.14;48.85
26823;BME280;14852;51.910;8.878;2023-04-08T03:48:56;100360.38;;;9.10;49.08
26823;BME280;14852;51.910;8.878;2023-04-08T03:51:22;100364.69;;;9.09;49.32
26823;BME280;14852;51.910;8.878;2023-04-08T03:53:48;100362.81;;;9.13;49.25
26823;BME280;14852;51.910;8.878;2023-04-08T03:56:14;100361.03;;;9.15;49.34
26823;BME280;14852;51.910;8.878;2023-04-08T03:58:40;100362.50;;;9.22;49.11
26823;BME280;14852;51.910;8.878;2023-04-08T04:01:06;100364.97;;;9.25;49.17
26823;BME280;14852;51.910;8.878;2023-04-08T04:03:32;100363.22;;;9.25;49.18
26823;BME280;14852;51.910;8.878;2023-04-08T04:05:58;100369.53;;;9.18;49.35
26823;BME280;14852;51.910;8.878;2023-04-08T04:08:23;100371.50;;;9.12;49.42
26823;BME280;14852;51.910;8.878;2023-04-08T04:10:49;100375.06;;;9.09;49.66
26823;BME280;14852;51.910;8.878;2023-04-08T04:13:16;100371.69;;;9.07;49.90
26823;BME280;14852;51.910;8.878;2023-04-08T04:15:42;100372.53;;;9.07;49.87
26823;BME280;14852;51.910;8.878;2023-04-08T04:18:08;100371.63;;;9.08;49.97
26823;BME280;14852;51.910;8.878;2023-04-08T04:20:33;100375.13;;;9.07;49.80
26823;BME280;14852;51.910;8.878;2023-04-08T04:22:59;100382.94;;;9.06;50.04
26823;BME280;14852;51.910;8.878;2023-04-08T04:25:25;100374.31;;;9.05;50.23
26823;BME280;14852;51.910;8.878;2023-04-08T04:27:51;100378.50;;;9.10;50.19
26823;BME280;14852;51.910;8.878;2023-04-08T04:30:17;100384.25;;;9.18;50.22
26823;BME280;14852;51.910;8.878;2023-04-08T04:32:44;100374.63;;;9.21;49.94
26823;BME280;14852;51.910;8.878;2023-04-08T04:35:11;100375.22;;;9.28;50.18
26823;BME280;14852;51.910;8.878;2023-04-08T04:37:37;100375.91;;;9.33;49.94
26823;BME280;14852;51.910;8.878;2023-04-08T04:40:04;100384.34;;;9.38;50.02
26823;BME280;14852;51.910;8.878;2023-04-08T04:42:31;100380.84;;;9.39;49.95
26823;BME280;14852;51.910;8.878;2023-04-08T04:44:58;100387.63;;;9.43;49.96
26823;BME280;14852;51.910;8.878;2023-04-08T04:47:24;100389.31;;;9.44;50.09
26823;BME280;14852;51.910;8.878;2023-04-08T04:49:50;100389.13;;;9.49;49.94
26823;BME280;14852;51.910;8.878;2023-04-08T04:52:16;100390.88;;;9.48;50.13
26823;BME280;14852;51.910;8.878;2023-04-08T04:54:42;100389.13;;;9.49;50.26
26823;BME280;14852;51.910;8.878;2023-04-08T04:57:07;100395.13;;;9.51;50.22
26823;BME280;14852;51.910;8.878;2023-04-08T04:59:33;100393.47;;;9.48;50.46
26823;BME280;14852;51.910;8.878;2023-04-08T05:01:59;100390.22;;;9.43;50.35
26823;BME280;14852;51.910;8.878;2023-04-08T05:04:25;100387.69;;;9.41;50.71
26823;BME280;14852;51.910;8.878;2023-04-08T05:06:51;100397.28;;;9.39;50.89
26823;BME280;14852;51.910;8.878;2023-04-08T05:09:16;100394.78;;;9.36;50.82
26823;BME280;14852;51.910;8.878;2023-04-08T05:11:42;100397.50;;;9.33;50.95
26823;BME280;14852;51.910;8.878;2023-04-08T05:14:08;100400.09;;;9.33;51.11
26823;BME280;14852;51.910;8.878;2023-04-08T05:16:34;100410.59;;;9.30;51.25
26823;BME280;14852;51.910;8.878;2023-04-08T05:19:00;100411.44;;;9.31;50.98
26823;BME280;14852;51.910;8.878;2023-04-08T05:21:26;100408.78;;;9.32;50.96
26823;BME280;14852;51.910;8.878;2023-04-08T05:23:52;100410.59;;;9.30;51.27
26823;BME280;14852;51.910;8.878;2023-04-08T05:26:22;100411.25;;;9.35;51.19
26823;BME280;14852;51.910;8.878;2023-04-08T05:28:49;100411.25;;;9.35;51.20
26823;BME280;14852;51.910;8.878;2023-04-08T05:31:19;100414.75;;;9.34;51.32
26823;BME280;14852;51.910;8.878;2023-04-08T05:33:45;100418.25;;;9.33;51.18
26823;BME280;14852;51.910;8.878;2023-04-08T05:36:11;100415.56;;;9.35;51.07
26823;BME280;14852;51.910;8.878;2023-04-08T05:38:38;100418.88;;;9.40;51.17
26823;BME280;14852;51.910;8.878;2023-04-08T05:41:04;100420.50;;;9.42;51.17
26823;BME280;14852;51.910;8.878;2023-04-08T05:43:32;100423.00;;;9.46;51.18
26823;BME280;14852;51.910;8.878;2023-04-08T05:45:58;100428.03;;;9.49;51.14
26823;BME280;14852;51.910;8.878;2023-04-08T05:48:24;100415.91;;;9.49;51.37
26823;BME280;14852;51.910;8.878;2023-04-08T05:50:49;100423.75;;;9.48;51.16
26823;BME280;14852;51.910;8.878;2023-04-08T05:53:15;100422.91;;;9.47;51.34
26823;BME280;14852;51.910;8.878;2023-04-08T05:55:41;100430.78;;;9.46;51.29
26823;BME280;14852;51.910;8.878;2023-04-08T05:58:07;100432.34;;;9.50;51.25
26823;BME280;14852;51.910;8.878;2023-04-08T06:00:33;100426.25;;;9.51;51.54
26823;BME280;14852;51.910;8.878;2023-04-08T06:02:58;100438.31;;;9.52;51.23
26823;BME280;14852;51.910;8.878;2023-04-08T06:05:24;100445.19;;;9.53;51.24
26823;BME280;14852;51.910;8.878;2023-04-08T06:07:50;100445.19;;;9.53;51.35
26823;BME280;14852;51.910;8.878;2023-04-08T06:10:16;100449.50;;;9.54;51.44
26823;BME280;14852;51.910;8.878;2023-04-08T06:12:42;100455.34;;;9.59;51.52
26823;BME280;14852;51.910;8.878;2023-04-08T06:15:09;100456.06;;;9.62;51.66
26823;BME280;14852;51.910;8.878;2023-04-08T06:17:38;100462.91;;;9.65;51.44
26823;BME280;14852;51.910;8.878;2023-04-08T06:20:05;100464.50;;;9.69;51.53
26823;BME280;14852;51.910;8.878;2023-04-08T06:22:31;100467.00;;;9.70;51.70
26823;BME280;14852;51.910;8.878;2023-04-08T06:24:57;100467.00;;;9.70;51.54
26823;BME280;14852;51.910;8.878;2023-04-08T06:27:23;100454.88;;;9.71;51.71
26823;BME280;14852;51.910;8.878;2023-04-08T06:29:48;100470.38;;;9.72;51.63
26823;BME280;14852;51.910;8.878;2023-04-08T06:32:14;100472.28;;;9.69;51.69
26823;BME280;14852;51.910;8.878;2023-04-08T06:34:40;100487.75;;;9.70;52.04
26823;BME280;14852;51.910;8.878;2023-04-08T06:37:06;100485.25;;;9.69;51.65
26823;BME280;14852;51.910;8.878;2023-04-08T06:39:32;100490.50;;;9.67;51.89
26823;BME280;14852;51.910;8.878;2023-04-08T06:41:58;100494.00;;;9.66;52.31
26823;BME280;14852;51.910;8.878;2023-04-08T06:44:34;100494.94;;;9.64;52.11
26823;BME280;14852;51.910;8.878;2023-04-08T06:47:00;100489.84;;;9.61;52.38
26823;BME280;14852;51.910;8.878;2023-04-08T06:49:25;100489.81;;;9.62;52.04
26823;BME280;14852;51.910;8.878;2023-04-08T06:51:51;100486.22;;;9.66;52.01
26823;BME280;14852;51.910;8.878;2023-04-08T06:54:17;100486.88;;;9.71;52.12
26823;BME280;14852;51.910;8.878;2023-04-08T06:56:43;100493.75;;;9.72;51.99
26823;BME280;14852;51.910;8.878;2023-04-08T06:59:09;100495.44;;;9.73;51.91
26823;BME280;14852;51.910;8.878;2023-04-08T07:01:35;100496.25;;;9.75;52.27
26823;BME280;14852;51.910;8.878;2023-04-08T07:04:00;100493.47;;;9.80;52.34
26823;BME280;14852;51.910;8.878;2023-04-08T07:06:26;100501.19;;;9.81;52.22
26823;BME280;14852;51.910;8.878;2023-04-08T07:08:52;100499.34;;;9.85;52.22
26823;BME280;14852;51.910;8.878;2023-04-08T07:11:18;100502.78;;;9.86;51.92
26823;BME280;14852;51.910;8.878;2023-04-08T07:13:44;100510.50;;;9.87;52.18
26823;BME280;14852;51.910;8.878;2023-04-08T07:16:09;100511.31;;;9.89;51.89
26823;BME280;14852;51.910;8.878;2023-04-08T07:18:35;100514.81;;;9.88;52.15
26823;BME280;14852;51.910;8.878;2023-04-08T07:21:01;100510.44;;;9.89;51.86
26823;BME280;14852;51.910;8.878;2023-04-08T07:23:27;100512.19;;;9.88;52.03
26823;BME280;14852;51.910;8.878;2023-04-08T07:25:53;100514.84;;;9.87;52.08
26823;BME280;14852;51.910;8.878;2023-04-08T07:28:19;100516.53;;;9.88;52.37
26823;BME280;14852;51.910;8.878;2023-04-08T07:30:46;100521.63;;;9.91;52.35
26823;BME280;14852;51.910;8.878;2023-04-08T07:33:12;100518.91;;;9.94;52.36
26823;BME280;14852;51.910;8.878;2023-04-08T07:35:37;100524.72;;;10.00;52.28
26823;BME280;14852;51.910;8.878;2023-04-08T07:38:03;100523.56;;;10.07;52.18
26823;BME280;14852;51.910;8.878;2023-04-08T07:40:29;100535.59;;;10.10;52.31
26823;BME280;14852;51.910;8.878;2023-04-08T07:42:55;100524.25;;;10.12;52.25
26823;BME280;14852;51.910;8.878;2023-04-08T07:45:21;100535.31;;;10.17;51.88
26823;BME280;14852;51.910;8.878;2023-04-08T07:47:47;100527.25;;;10.25;52.05
26823;BME280;14852;51.910;8.878;2023-04-08T07:50:13;100539.16;;;10.31;52.02
26823;BME280;14852;51.910;8.878;2023-04-08T07:52:39;100536.56;;;10.31;51.93
26823;BME280;14852;51.910;8.878;2023-04-08T07:55:05;100543.56;;;10.29;52.28
26823;BME280;14852;51.910;8.878;2023-04-08T07:57:31;100541.00;;;10.27;52.28
26823;BME280;14852;51.910;8.878;2023-04-08T07:59:57;100539.25;;;10.28;52.40
26823;BME280;14852;51.910;8.878;2023-04-08T08:02:22;100538.88;;;10.38;52.11
26823;BME280;14852;51.910;8.878;2023-04-08T08:04:48;100535.75;;;10.50;52.16
26823;BME280;14852;51.910;8.878;2023-04-08T08:07:14;100540.63;;;10.60;51.88
26823;BME280;14852;51.910;8.878;2023-04-08T08:09:40;100542.31;;;10.61;51.77
26823;BME280;14852;51.910;8.878;2023-04-08T08:12:06;100544.13;;;10.59;51.99
26823;BME280;14852;51.910;8.878;2023-04-08T08:14:32;100542.31;;;10.61;52.10
26823;BME280;14852;51.910;8.878;2023-04-08T08:16:58;100546.53;;;10.63;52.15
26823;BME280;14852;51.910;8.878;2023-04-08T08:19:23;100549.38;;;10.57;52.49
26823;BME280;14852;51.910;8.878;2023-04-08T08:21:49;100552.78;;;10.59;52.21
26823;BME280;14852;51.910;8.878;2023-04-08T08:24:16;100548.16;;;10.66;52.13
26823;BME280;14852;51.910;8.878;2023-04-08T08:26:42;100552.97;;;10.75;52.02
26823;BME280;14852;51.910;8.878;2023-04-08T08:29:09;100549.53;;;10.74;51.97
26823;BME280;14852;51.910;8.878;2023-04-08T08:31:35;100547.09;;;10.71;52.41
26823;BME280;14852;51.910;8.878;2023-04-08T08:34:01;100558.00;;;10.79;52.43
26823;BME280;14852;51.910;8.878;2023-04-08T08:36:27;100561.19;;;10.86;52.08
26823;BME280;14852;51.910;8.878;2023-04-08T08:38:53;100564.53;;;10.89;52.12
26823;BME280;14852;51.910;8.878;2023-04-08T08:41:20;100563.44;;;10.95;52.00
26823;BME280;14852;51.910;8.878;2023-04-08T08:43:46;100564.81;;;11.04;51.96
26823;BME280;14852;51.910;8.878;2023-04-08T08:46:16;100571.25;;;11.15;51.66
26823;BME280;14852;51.910;8.878;2023-04-08T08:48:43;100564.09;;;11.20;51.91
26823;BME280;14852;51.910;8.878;2023-04-08T08:51:11;100559.56;;;11.25;51.65
26823;BME280;14852;51.910;8.878;2023-04-08T08:53:37;100558.81;;;11.42;51.45
26823;BME280;14852;51.910;8.878;2023-04-08T08:56:04;100559.97;;;11.55;51.51
26823;BME280;14852;51.910;8.878;2023-04-08T08:58:33;100562.94;;;11.67;51.05
26823;BME280;14852;51.910;8.878;2023-04-08T09:00:59;100572.75;;;11.61;51.43
26823;BME280;14852;51.910;8.878;2023-04-08T09:03:27;100574.25;;;11.47;51.44
26823;BME280;14852;51.910;8.878;2023-04-08T09:05:58;100584.13;;;11.39;51.65
26823;BME280;14852;51.910;8.878;2023-04-08T09:11:16;100579.56;;;11.44;51.93
26823;BME280;14852;51.910;8.878;2023-04-08T09:13:43;100574.31;;;11.45;51.59
26823;BME280;14852;51.910;8.878;2023-04-08T09:16:12;100568.78;;;11.53;51.98
26823;BME280;14852;51.910;8.878;2023-04-08T09:18:40;100577.81;;;11.65;51.49
26823;BME280;14852;51.910;8.878;2023-04-08T09:21:09;100569.06;;;11.66;51.74
26823;BME280;14852;51.910;8.878;2023-04-08T09:23:40;100574.88;;;11.72;51.58
26823;BME280;14852;51.910;8.878;2023-04-08T09:26:15;100575.06;;;11.68;51.61
26823;BME280;14852;51.910;8.878;2023-04-08T09:28:43;100581.84;;;11.72;51.59
26823;BME280;14852;51.910;8.878;2023-04-08T09:31:25;100587.56;;;11.80;51.63
26823;BME280;14852;51.910;8.878;2023-04-08T09:33:53;100591.41;;;11.91;51.23
26823;BME280;14852;51.910;8.878;2023-04-08T09:36:20;100596.66;;;11.90;51.15
26823;BME280;14852;51.910;8.878;2023-04-08T09:38:47;100596.66;;;11.90;51.34
26823;BME280;14852;51.910;8.878;2023-04-08T09:41:16;100598.59;;;11.86;51.24
26823;BME280;14852;51.910;8.878;2023-04-08T09:43:54;100600.84;;;11.94;51.29
26823;BME280;14852;51.910;8.878;2023-04-08T09:46:38;100599.19;;;11.91;51.10
26823;BME280;14852;51.910;8.878;2023-04-08T09:49:18;100602.47;;;11.96;51.34
26823;BME280;14852;51.910;8.878;2023-04-08T09:52:14;100602.97;;;12.05;51.36
26823;BME280;14852;51.910;8.878;2023-04-08T09:57:40;100605.94;;;12.16;50.78
26823;BME280;14852;51.910;8.878;2023-04-08T10:00:16;100608.25;;;12.22;51.07
26823;BME280;14852;51.910;8.878;2023-04-08T10:05:41;100616.34;;;12.53;51.05
26823;BME280;14852;51.910;8.878;2023-04-08T10:08:09;100609.72;;;12.46;51.08
26823;BME280;14852;51.910;8.878;2023-04-08T10:10:38;100610.94;;;12.39;51.14
26823;BME280;14852;51.910;8.878;2023-04-08T10:13:06;100622.34;;;12.37;51.35
26823;BME280;14852;51.910;8.878;2023-04-08T10:15:36;100620.50;;;12.39;51.45
26823;BME280;14852;51.910;8.878;2023-04-08T10:23:12;100619.91;;;12.69;50.42
26823;BME280;14852;51.910;8.878;2023-04-08T10:25:39;100623.81;;;12.61;50.83
26823;BME280;14852;51.910;8.878;2023-04-08T10:30:42;100623.03;;;12.59;50.99
26823;BME280;14852;51.910;8.878;2023-04-08T10:33:21;100624.19;;;12.53;51.21
26823;BME280;14852;51.910;8.878;2023-04-08T10:35:50;100627.28;;;12.43;51.66
26823;BME280;14852;51.910;8.878;2023-04-08T10:38:18;100621.28;;;12.41;51.26
26823;BME280;14852;51.910;8.878;2023-04-08T10:40:44;100609.81;;;12.45;51.44
26823;BME280;14852;51.910;8.878;2023-04-08T10:43:12;100619.03;;;12.52;51.46
26823;BME280;14852;51.910;8.878;2023-04-08T10:45:39;100622.03;;;12.61;51.55
26823;BME280;14852;51.910;8.878;2023-04-08T10:50:38;100618.47;;;12.81;51.08
26823;BME280;14852;51.910;8.878;2023-04-08T10:53:04;100611.69;;;12.79;51.10
26823;BME280;14852;51.910;8.878;2023-04-08T10:55:30;100612.28;;;12.84;50.80
26823;BME280;14852;51.910;8.878;2023-04-08T10:58:05;100601.19;;;12.97;51.12
26823;BME280;14852;51.910;8.878;2023-04-08T11:00:40;100611.56;;;12.99;50.73
26823;BME280;14852;51.910;8.878;2023-04-08T11:03:08;100614.22;;;12.97;50.95
26823;BME280;14852;51.910;8.878;2023-04-08T11:05:35;100618.75;;;12.94;51.12
26823;BME280;14852;51.910;8.878;2023-04-08T11:08:05;100620.94;;;12.84;51.36
26823;BME280;14852;51.910;8.878;2023-04-08T11:10:37;100625.41;;;12.82;51.05
26823;BME280;14852;51.910;8.878;2023-04-08T11:13:08;100620.94;;;12.84;51.26
26823;BME280;14852;51.910;8.878;2023-04-08T11:15:37;100622.72;;;12.84;51.01
26823;BME280;14852;51.910;8.878;2023-04-08T11:18:04;100626.31;;;12.81;50.99
26823;BME280;14852;51.910;8.878;2023-04-08T11:20:32;100629.94;;;12.79;51.42
26823;BME280;14852;51.910;8.878;2023-04-08T11:23:00;100627.53;;;12.74;51.21
26823;BME280;14852;51.910;8.878;2023-04-08T11:25:27;100626.75;;;12.72;51.58
26823;BME280;14852;51.910;8.878;2023-04-08T11:27:53;100615.66;;;12.68;51.28
26823;BME280;14852;51.910;8.878;2023-04-08T11:30:20;100625.91;;;12.72;51.62
26823;BME280;14852;51.910;8.878;2023-04-08T11:32:46;100623.88;;;12.78;51.14
26823;BME280;14852;51.910;8.878;2023-04-08T11:35:12;100624.47;;;12.83;51.56
26823;BME280;14852;51.910;8.878;2023-04-08T11:37:41;100620.88;;;12.86;51.43
26823;BME280;14852;51.910;8.878;2023-04-08T11:40:09;100618.41;;;12.83;51.69
26823;BME280;14852;51.910;8.878;2023-04-08T11:42:36;100614.69;;;12.88;51.49
26823;BME280;14852;51.910;8.878;2023-04-08T11:45:10;100607.31;;;12.96;51.21
26823;BME280;14852;51.910;8.878;2023-04-08T11:47:36;100612.09;;;13.05;51.13
26823;BME280;14852;51.910;8.878;2023-04-08T11:50:03;100620.41;;;13.14;50.86
26823;BME280;14852;51.910;8.878;2023-04-08T11:52:42;100615.81;;;13.19;50.69
26823;BME280;14852;51.910;8.878;2023-04-08T11:55:21;100622.88;;;13.17;50.91
26823;BME280;14852;51.910;8.878;2023-04-08T11:57:47;100618.78;;;13.11;51.03
26823;BME280;14852;51.910;8.878;2023-04-08T12:00:13;100622.03;;;13.16;51.23
26823;BME280;14852;51.910;8.878;2023-04-08T12:02:40;100630.81;;;13.15;51.22
26823;BME280;14852;51.910;8.878;2023-04-08T12:05:06;100623.38;;;13.06;51.22
26823;BME280;14852;51.910;8.878;2023-04-08T12:07:33;100627.75;;;13.05;51.26
26823;BME280;14852;51.910;8.878;2023-04-08T12:09:58;100626.41;;;13.16;51.00
26823;BME280;14852;51.910;8.878;2023-04-08T12:12:24;100630.69;;;13.17;50.99
26823;BME280;14852;51.910;8.878;2023-04-08T12:14:50;100630.63;;;13.18;51.30
26823;BME280;14852;51.910;8.878;2023-04-08T12:17:16;100633.31;;;13.17;51.15
26823;BME280;14852;51.910;8.878;2023-04-08T12:19:42;100638.25;;;13.23;51.37
26823;BME280;14852;51.910;8.878;2023-04-08T12:22:07;100639.16;;;13.22;51.32
26823;BME280;14852;51.910;8.878;2023-04-08T12:24:33;100647.97;;;13.19;51.29
26823;BME280;14852;51.910;8.878;2023-04-08T12:26:59;100648.00;;;13.00;51.17
26823;BME280;14852;51.910;8.878;2023-04-08T12:29:26;100645.50;;;12.80;51.98
26823;BME280;14852;51.910;8.878;2023-04-08T12:31:52;100648.75;;;12.66;52.18
26823;BME280;14852;51.910;8.878;2023-04-08T12:34:18;100651.56;;;12.62;52.15
26823;BME280;14852;51.910;8.878;2023-04-08T12:36:44;100648.56;;;12.52;52.45
26823;BME280;14852;51.910;8.878;2023-04-08T12:39:10;100647.69;;;12.52;52.29
26823;BME280;14852;51.910;8.878;2023-04-08T12:41:36;100643.47;;;12.49;52.27
26823;BME280;14852;51.910;8.878;2023-04-08T12:44:02;100650.81;;;12.41;52.65
26823;BME280;14852;51.910;8.878;2023-04-08T12:46:27;100651.66;;;12.42;52.62
26823;BME280;14852;51.910;8.878;2023-04-08T12:48:53;100642.69;;;12.47;52.49
26823;BME280;14852;51.910;8.878;2023-04-08T12:51:19;100640.66;;;12.54;52.46
26823;BME280;14852;51.910;8.878;2023-04-08T12:53:45;100634.94;;;12.64;51.97
26823;BME280;14852;51.910;8.878;2023-04-08T12:56:11;100638.75;;;12.76;52.00
26823;BME280;14852;51.910;8.878;2023-04-08T12:58:36;100658.03;;;12.72;52.11
26823;BME280;14852;51.910;8.878;2023-04-08T13:01:02;100645.91;;;12.71;52.22
26823;BME280;14852;51.910;8.878;2023-04-08T13:03:28;100651.03;;;12.55;52.22
26823;BME280;14852;51.910;8.878;2023-04-08T13:05:56;100649.47;;;12.51;52.47
26823;BME280;14852;51.910;8.878;2023-04-08T13:08:24;100643.19;;;12.55;52.67
26823;BME280;14852;51.910;8.878;2023-04-08T13:10:49;100654.09;;;12.63;52.51
26823;BME280;14852;51.910;8.878;2023-04-08T13:13:15;100654.03;;;12.65;52.40
26823;BME280;14852;51.910;8.878;2023-04-08T13:15:41;100651.03;;;12.55;52.40
26823;BME280;14852;51.910;8.878;2023-04-08T13:18:08;100644.44;;;12.47;52.79
26823;BME280;14852;51.910;8.878;2023-04-08T13:20:34;100646.78;;;12.34;52.84